sensor_id;sensor_type;location;lat;lon;timestamp;pressure;altitude;pressure_sealevel;temperature;humidity
10261;BME280;5175;42.606;23.388;2022-08-19T00:00:09;93580.97;;;20.41;83.67
10261;BME280;5175;42.606;23.388;2022-08-19T00:02:39;93574.56;;;20.62;83.38
10261;BME280;5175;42.606;23.388;2022-08-19T00:05:09;93579.75;;;20.39;83.48
10261;BME280;5175;42.606;23.388;2022-08-19T00:07:36;93566.66;;;20.29;83.74
10261;BME280;5175;42.606;23.388;2022-08-19T00:10:05;93563.06;;;20.25;83.85
10261;BME280;5175;42.606;23.388;2022-08-19T00:12:32;93566.72;;;20.05;83.67
10261;BME280;5175;42.606;23.388;2022-08-19T00:14:59;93572.03;;;19.89;83.37
10261;BME280;5175;42.606;23.388;2022-08-19T00:17:26;93567.38;;;20.02;83.82
10261;BME280;5175;42.606;23.388;2022-08-19T00:19:53;93566.59;;;20.13;83.96
10261;BME280;5175;42.606;23.388;2022-08-19T00:22:21;93577.88;;;20.03;83.88
10261;BME280;5175;42.606;23.388;2022-08-19T00:24:48;93580.03;;;19.85;83.71
10261;BME280;5175;42.606;23.388;2022-08-19T00:27:15;93577.06;;;20.15;83.87
10261;BME280;5175;42.606;23.388;2022-08-19T00:29:41;93584.63;;;20.09;83.78
10261;BME280;5175;42.606;23.388;2022-08-19T00:32:08;93601.09;;;20.16;83.88
10261;BME280;5175;42.606;23.388;2022-08-19T00:34:36;93586.34;;;20.26;83.95
10261;BME280;5175;42.606;23.388;2022-08-19T00:37:02;93583.69;;;20.41;83.30
10261;BME280;5175;42.606;23.388;2022-08-19T00:39:31;93591.84;;;20.29;83.84
10261;BME280;5175;42.606;23.388;2022-08-19T00:41:57;93584.75;;;20.25;83.71
10261;BME280;5175;42.606;23.388;2022-08-19T00:44:26;93570.97;;;20.18;83.55
10261;BME280;5175;42.606;23.388;2022-08-19T00:46:55;93588.78;;;20.19;83.77
10261;BME280;5175;42.606;23.388;2022-08-19T00:49:27;93567.19;;;19.94;83.66
10261;BME280;5175;42.606;23.388;2022-08-19T00:52:00;93577.78;;;19.99;83.75
10261;BME280;5175;42.606;23.388;2022-08-19T00:54:28;93574.91;;;20.08;84.08
10261;BME280;5175;42.606;23.388;2022-08-19T00:56:58;93572.00;;;20.13;84.02
10261;BME280;5175;42.606;23.388;2022-08-19T00:59:27;93575.63;;;19.93;84.03
10261;BME280;5175;42.606;23.388;2022-08-19T01:01:54;93576.09;;;19.83;83.70
10261;BME280;5175;42.606;23.388;2022-08-19T01:04:21;93575.63;;;20.05;83.95
10261;BME280;5175;42.606;23.388;2022-08-19T01:06:48;93574.59;;;20.10;83.89
10261;BME280;5175;42.606;23.388;2022-08-19T01:09:15;93576.03;;;20.19;83.78
10261;BME280;5175;42.606;23.388;2022-08-19T01:11:43;93585.31;;;20.06;83.95
10261;BME280;5175;42.606;23.388;2022-08-19T01:14:13;93572.59;;;19.82;83.86
10261;BME280;5175;42.606;23.388;2022-08-19T01:16:41;93569.56;;;19.84;83.79
10261;BME280;5175;42.606;23.388;2022-08-19T01:19:12;93541.41;;;19.61;83.91
10261;BME280;5175;42.606;23.388;2022-08-19T01:21:46;93564.63;;;19.62;83.84
10261;BME280;5175;42.606;23.388;2022-08-19T01:24:17;93560.00;;;19.74;83.58
10261;BME280;5175;42.606;23.388;2022-08-19T01:26:46;93566.63;;;19.89;83.98
10261;BME280;5175;42.606;23.388;2022-08-19T01:29:13;93557.81;;;19.80;83.94
10261;BME280;5175;42.606;23.388;2022-08-19T01:31:40;93562.00;;;19.77;83.99
10261;BME280;5175;42.606;23.388;2022-08-19T01:34:07;93564.19;;;19.72;84.11
10261;BME280;5175;42.606;23.388;2022-08-19T01:36:37;93560.44;;;19.52;83.25
10261;BME280;5175;42.606;23.388;2022-08-19T01:39:07;93568.69;;;19.68;83.84
10261;BME280;5175;42.606;23.388;2022-08-19T01:41:36;93556.84;;;19.48;83.80
10261;BME280;5175;42.606;23.388;2022-08-19T01:44:04;93574.00;;;19.40;83.04
10261;BME280;5175;42.606;23.388;2022-08-19T01:46:32;93577.38;;;19.37;83.42
10261;BME280;5175;42.606;23.388;2022-08-19T01:48:59;93570.31;;;19.12;81.57
10261;BME280;5175;42.606;23.388;2022-08-19T01:51:26;93571.69;;;19.18;82.76
10261;BME280;5175;42.606;23.388;2022-08-19T01:53:53;93568.19;;;19.29;83.05
10261;BME280;5175;42.606;23.388;2022-08-19T01:56:21;93562.66;;;19.26;82.03
10261;BME280;5175;42.606;23.388;2022-08-19T01:58:51;93562.22;;;19.12;80.62
10261;BME280;5175;42.606;23.388;2022-08-19T02:01:20;93562.88;;;19.21;81.13
10261;BME280;5175;42.606;23.388;2022-08-19T02:03:46;93562.00;;;19.29;82.27
10261;BME280;5175;42.606;23.388;2022-08-19T02:06:13;93562.16;;;19.45;83.68
10261;BME280;5175;42.606;23.388;2022-08-19T02:08:42;93551.66;;;19.43;84.21
10261;BME280;5175;42.606;23.388;2022-08-19T02:11:18;93560.81;;;19.39;83.98
10261;BME280;5175;42.606;23.388;2022-08-19T02:13:45;93567.28;;;19.13;82.85
10261;BME280;5175;42.606;23.388;2022-08-19T02:16:13;93558.94;;;19.06;82.20
10261;BME280;5175;42.606;23.388;2022-08-19T02:18:40;93565.50;;;19.17;83.64
10261;BME280;5175;42.606;23.388;2022-08-19T02:21:07;93563.09;;;19.16;83.00
10261;BME280;5175;42.606;23.388;2022-08-19T02:23:34;93563.47;;;19.26;83.33
10261;BME280;5175;42.606;23.388;2022-08-19T02:26:00;93568.41;;;19.24;83.46
10261;BME280;5175;42.606;23.388;2022-08-19T02:28:27;93561.41;;;18.87;81.91
10261;BME280;5175;42.606;23.388;2022-08-19T02:30:54;93569.81;;;18.73;80.62
10261;BME280;5175;42.606;23.388;2022-08-19T02:33:22;93561.47;;;18.66;80.61
10261;BME280;5175;42.606;23.388;2022-08-19T02:35:48;93567.97;;;18.65;79.02
10261;BME280;5175;42.606;23.388;2022-08-19T02:38:15;93563.44;;;18.57;80.06
10261;BME280;5175;42.606;23.388;2022-08-19T02:40:52;93568.09;;;18.69;81.34
10261;BME280;5175;42.606;23.388;2022-08-19T02:43:20;93571.94;;;18.80;82.30
10261;BME280;5175;42.606;23.388;2022-08-19T02:45:47;93573.88;;;18.80;81.80
10261;BME280;5175;42.606;23.388;2022-08-19T02:48:15;93580.28;;;18.75;81.02
10261;BME280;5175;42.606;23.388;2022-08-19T02:50:44;93577.34;;;18.80;80.01
10261;BME280;5175;42.606;23.388;2022-08-19T02:53:10;93581.31;;;18.83;81.53
10261;BME280;5175;42.606;23.388;2022-08-19T02:55:42;93579.31;;;18.92;82.79
10261;BME280;5175;42.606;23.388;2022-08-19T02:58:10;93577.16;;;18.52;79.25
10261;BME280;5175;42.606;23.388;2022-08-19T03:00:41;93580.88;;;18.48;79.14
10261;BME280;5175;42.606;23.388;2022-08-19T03:03:09;93576.84;;;18.54;79.15
10261;BME280;5175;42.606;23.388;2022-08-19T03:05:36;93576.97;;;18.69;81.72
10261;BME280;5175;42.606;23.388;2022-08-19T03:08:04;93573.94;;;18.38;78.73
10261;BME280;5175;42.606;23.388;2022-08-19T03:10:31;93582.56;;;18.52;79.68
10261;BME280;5175;42.606;23.388;2022-08-19T03:12:58;93575.91;;;18.50;79.57
10261;BME280;5175;42.606;23.388;2022-08-19T03:15:25;93573.00;;;18.13;77.34
10261;BME280;5175;42.606;23.388;2022-08-19T03:17:52;93572.09;;;18.30;78.67
10261;BME280;5175;42.606;23.388;2022-08-19T03:20:19;93572.16;;;18.22;77.93
10261;BME280;5175;42.606;23.388;2022-08-19T03:22:46;93567.81;;;18.29;77.42
10261;BME280;5175;42.606;23.388;2022-08-19T03:25:14;93565.31;;;18.24;77.83
10261;BME280;5175;42.606;23.388;2022-08-19T03:27:41;93555.44;;;18.28;76.53
10261;BME280;5175;42.606;23.388;2022-08-19T03:30:10;93563.13;;;18.38;79.17
10261;BME280;5175;42.606;23.388;2022-08-19T03:32:37;93564.25;;;18.37;78.24
10261;BME280;5175;42.606;23.388;2022-08-19T03:35:04;93570.84;;;18.28;79.51
10261;BME280;5175;42.606;23.388;2022-08-19T03:37:31;93566.28;;;18.40;80.06
10261;BME280;5175;42.606;23.388;2022-08-19T03:39:58;93571.22;;;18.38;75.43
10261;BME280;5175;42.606;23.388;2022-08-19T03:42:26;93583.75;;;18.43;79.84
10261;BME280;5175;42.606;23.388;2022-08-19T03:44:53;93575.31;;;18.24;78.32
10261;BME280;5175;42.606;23.388;2022-08-19T03:47:19;93575.59;;;18.31;79.27
10261;BME280;5175;42.606;23.388;2022-08-19T03:49:46;93579.25;;;18.26;78.87
10261;BME280;5175;42.606;23.388;2022-08-19T03:52:13;93582.44;;;18.28;78.57
10261;BME280;5175;42.606;23.388;2022-08-19T03:54:41;93577.34;;;18.27;77.86
10261;BME280;5175;42.606;23.388;2022-08-19T03:57:07;93584.16;;;18.33;79.50
10261;BME280;5175;42.606;23.388;2022-08-19T03:59:38;93586.06;;;18.32;80.01
10261;BME280;5175;42.606;23.388;2022-08-19T04:02:07;93583.50;;;18.36;79.88
10261;BME280;5175;42.606;23.388;2022-08-19T04:04:35;93589.56;;;18.33;80.51
10261;BME280;5175;42.606;23.388;2022-08-19T04:07:03;93595.47;;;18.47;81.44
10261;BME280;5175;42.606;23.388;2022-08-19T04:09:29;93592.06;;;18.58;82.46
10261;BME280;5175;42.606;23.388;2022-08-19T04:11:57;93603.69;;;18.71;81.93
10261;BME280;5175;42.606;23.388;2022-08-19T04:14:26;93601.38;;;18.82;81.74
10261;BME280;5175;42.606;23.388;2022-08-19T04:16:57;93616.22;;;18.88;80.50
10261;BME280;5175;42.606;23.388;2022-08-19T04:19:24;93615.06;;;19.09;81.98
10261;BME280;5175;42.606;23.388;2022-08-19T04:21:53;93616.31;;;19.12;81.63
10261;BME280;5175;42.606;23.388;2022-08-19T04:24:21;93612.59;;;19.16;80.47
10261;BME280;5175;42.606;23.388;2022-08-19T04:26:48;93585.88;;;19.03;83.63
10261;BME280;5175;42.606;23.388;2022-08-19T04:29:18;93618.50;;;19.30;83.75
10261;BME280;5175;42.606;23.388;2022-08-19T04:31:47;93626.50;;;19.39;83.04
10261;BME280;5175;42.606;23.388;2022-08-19T04:34:18;93618.78;;;19.05;80.38
10261;BME280;5175;42.606;23.388;2022-08-19T04:36:47;93623.97;;;19.10;80.93
10261;BME280;5175;42.606;23.388;2022-08-19T04:39:17;93601.53;;;18.97;80.58
10261;BME280;5175;42.606;23.388;2022-08-19T04:41:45;93609.94;;;18.84;78.28
10261;BME280;5175;42.606;23.388;2022-08-19T04:44:30;93605.38;;;18.75;77.39
10261;BME280;5175;42.606;23.388;2022-08-19T04:46:57;93597.69;;;18.65;77.57
10261;BME280;5175;42.606;23.388;2022-08-19T04:49:25;93611.59;;;18.76;76.86
10261;BME280;5175;42.606;23.388;2022-08-19T04:51:53;93609.38;;;18.90;78.26
10261;BME280;5175;42.606;23.388;2022-08-19T04:54:21;93609.56;;;18.73;76.00
10261;BME280;5175;42.606;23.388;2022-08-19T04:56:51;93604.88;;;18.82;76.38
10261;BME280;5175;42.606;23.388;2022-08-19T04:59:19;93614.47;;;19.04;78.44
10261;BME280;5175;42.606;23.388;2022-08-19T05:01:47;93611.34;;;19.14;78.49
10261;BME280;5175;42.606;23.388;2022-08-19T05:04:16;93621.09;;;19.39;79.74
10261;BME280;5175;42.606;23.388;2022-08-19T05:06:46;93622.25;;;19.38;79.10
10261;BME280;5175;42.606;23.388;2022-08-19T05:09:13;93627.13;;;19.57;81.49
10261;BME280;5175;42.606;23.388;2022-08-19T05:11:40;93625.41;;;19.76;82.99
10261;BME280;5175;42.606;23.388;2022-08-19T05:14:08;93629.69;;;19.77;82.01
10261;BME280;5175;42.606;23.388;2022-08-19T05:16:36;93626.00;;;19.82;81.84
10261;BME280;5175;42.606;23.388;2022-08-19T05:19:02;93610.41;;;19.91;81.89
10261;BME280;5175;42.606;23.388;2022-08-19T05:21:48;93622.69;;;20.13;83.01
10261;BME280;5175;42.606;23.388;2022-08-19T05:24:32;93625.25;;;20.33;83.36
10261;BME280;5175;42.606;23.388;2022-08-19T05:27:00;93620.34;;;20.51;83.78
10261;BME280;5175;42.606;23.388;2022-08-19T05:29:28;93623.19;;;20.82;84.15
10261;BME280;5175;42.606;23.388;2022-08-19T05:31:57;93621.81;;;21.04;85.57
10261;BME280;5175;42.606;23.388;2022-08-19T05:34:24;93630.13;;;21.23;85.58
10261;BME280;5175;42.606;23.388;2022-08-19T05:36:58;93628.41;;;21.46;85.88
10261;BME280;5175;42.606;23.388;2022-08-19T05:39:28;93629.25;;;21.66;85.87
10261;BME280;5175;42.606;23.388;2022-08-19T05:41:57;93625.16;;;21.56;85.60
10261;BME280;5175;42.606;23.388;2022-08-19T05:44:25;93625.19;;;21.88;85.64
10261;BME280;5175;42.606;23.388;2022-08-19T05:46:53;93629.34;;;21.85;85.66
10261;BME280;5175;42.606;23.388;2022-08-19T05:49:23;93635.06;;;21.80;85.85
10261;BME280;5175;42.606;23.388;2022-08-19T05:51:51;93634.84;;;21.73;85.77
10261;BME280;5175;42.606;23.388;2022-08-19T05:54:19;93627.53;;;21.89;85.35
10261;BME280;5175;42.606;23.388;2022-08-19T05:56:46;93634.97;;;22.08;85.21
10261;BME280;5175;42.606;23.388;2022-08-19T05:59:15;93639.09;;;22.36;85.07
10261;BME280;5175;42.606;23.388;2022-08-19T06:01:44;93641.38;;;22.34;83.78
10261;BME280;5175;42.606;23.388;2022-08-19T06:04:12;93642.59;;;22.72;82.89
10261;BME280;5175;42.606;23.388;2022-08-19T06:06:40;93643.53;;;22.98;80.83
10261;BME280;5175;42.606;23.388;2022-08-19T06:09:07;93633.63;;;23.10;80.08
10261;BME280;5175;42.606;23.388;2022-08-19T06:11:39;93647.00;;;23.37;80.06
10261;BME280;5175;42.606;23.388;2022-08-19T06:14:08;93639.53;;;23.53;79.79
10261;BME280;5175;42.606;23.388;2022-08-19T06:16:37;93654.66;;;23.51;80.55
10261;BME280;5175;42.606;23.388;2022-08-19T06:19:07;93646.81;;;23.68;78.56
10261;BME280;5175;42.606;23.388;2022-08-19T06:21:35;93649.94;;;23.71;78.71
10261;BME280;5175;42.606;23.388;2022-08-19T06:24:04;93658.72;;;23.83;76.78
10261;BME280;5175;42.606;23.388;2022-08-19T06:26:33;93659.81;;;23.79;78.53
10261;BME280;5175;42.606;23.388;2022-08-19T06:29:02;93662.47;;;24.20;74.71
10261;BME280;5175;42.606;23.388;2022-08-19T06:31:32;93659.59;;;24.36;72.99
10261;BME280;5175;42.606;23.388;2022-08-19T06:34:00;93659.84;;;24.54;71.00
10261;BME280;5175;42.606;23.388;2022-08-19T06:36:31;93657.19;;;24.57;73.59
10261;BME280;5175;42.606;23.388;2022-08-19T06:39:00;93662.47;;;24.73;73.63
10261;BME280;5175;42.606;23.388;2022-08-19T06:41:27;93644.19;;;24.77;73.05
10261;BME280;5175;42.606;23.388;2022-08-19T06:43:55;93648.44;;;25.04;70.79
10261;BME280;5175;42.606;23.388;2022-08-19T06:46:23;93664.34;;;25.28;70.81
10261;BME280;5175;42.606;23.388;2022-08-19T06:48:50;93651.47;;;25.29;67.90
10261;BME280;5175;42.606;23.388;2022-08-19T06:51:19;93647.28;;;25.38;67.78
10261;BME280;5175;42.606;23.388;2022-08-19T06:53:47;93646.47;;;25.34;67.12
10261;BME280;5175;42.606;23.388;2022-08-19T06:56:16;93654.59;;;25.64;66.30
10261;BME280;5175;42.606;23.388;2022-08-19T06:58:43;93653.13;;;25.74;66.51
10261;BME280;5175;42.606;23.388;2022-08-19T07:01:10;93666.03;;;25.77;63.33
10261;BME280;5175;42.606;23.388;2022-08-19T07:03:38;93658.84;;;25.98;63.56
10261;BME280;5175;42.606;23.388;2022-08-19T07:06:07;93667.50;;;26.07;62.34
10261;BME280;5175;42.606;23.388;2022-08-19T07:08:36;93672.28;;;26.18;61.92
10261;BME280;5175;42.606;23.388;2022-08-19T07:11:06;93674.00;;;26.36;62.29
10261;BME280;5175;42.606;23.388;2022-08-19T07:13:33;93672.94;;;26.51;61.19
10261;BME280;5175;42.606;23.388;2022-08-19T07:16:03;93673.03;;;26.65;60.29
10261;BME280;5175;42.606;23.388;2022-08-19T07:18:30;93656.19;;;26.60;59.28
10261;BME280;5175;42.606;23.388;2022-08-19T07:21:03;93686.03;;;26.79;58.84
10261;BME280;5175;42.606;23.388;2022-08-19T07:23:30;93680.50;;;26.72;58.55
10261;BME280;5175;42.606;23.388;2022-08-19T07:25:57;93677.53;;;26.95;58.78
10261;BME280;5175;42.606;23.388;2022-08-19T07:28:24;93680.31;;;27.05;57.32
10261;BME280;5175;42.606;23.388;2022-08-19T07:30:51;93682.31;;;27.15;57.50
10261;BME280;5175;42.606;23.388;2022-08-19T07:33:18;93679.25;;;27.31;55.06
10261;BME280;5175;42.606;23.388;2022-08-19T07:35:46;93672.19;;;27.26;54.71
10261;BME280;5175;42.606;23.388;2022-08-19T07:38:15;93683.66;;;27.46;54.68
10261;BME280;5175;42.606;23.388;2022-08-19T07:40:42;93674.69;;;27.67;53.87
10261;BME280;5175;42.606;23.388;2022-08-19T07:43:11;93686.09;;;27.76;53.66
10261;BME280;5175;42.606;23.388;2022-08-19T07:45:37;93679.81;;;27.79;53.11
10261;BME280;5175;42.606;23.388;2022-08-19T07:48:04;93677.47;;;27.91;51.43
10261;BME280;5175;42.606;23.388;2022-08-19T07:50:32;93667.69;;;27.87;52.44
10261;BME280;5175;42.606;23.388;2022-08-19T07:52:58;93682.22;;;28.12;51.57
10261;BME280;5175;42.606;23.388;2022-08-19T07:55:26;93665.00;;;28.08;51.24
10261;BME280;5175;42.606;23.388;2022-08-19T07:57:53;93683.03;;;28.16;51.14
10261;BME280;5175;42.606;23.388;2022-08-19T08:00:20;93684.63;;;28.35;51.29
10261;BME280;5175;42.606;23.388;2022-08-19T08:02:47;93663.03;;;28.54;50.62
10261;BME280;5175;42.606;23.388;2022-08-19T08:05:14;93692.41;;;28.93;49.56
10261;BME280;5175;42.606;23.388;2022-08-19T08:07:58;93683.69;;;29.19;48.77
10261;BME280;5175;42.606;23.388;2022-08-19T08:10:43;93689.19;;;29.30;47.52
10261;BME280;5175;42.606;23.388;2022-08-19T08:13:10;93686.88;;;29.21;48.81
10261;BME280;5175;42.606;23.388;2022-08-19T08:15:38;93680.09;;;29.43;47.67
10261;BME280;5175;42.606;23.388;2022-08-19T08:18:04;93689.09;;;29.51;47.47
10261;BME280;5175;42.606;23.388;2022-08-19T08:20:32;93658.78;;;29.61;47.46
10261;BME280;5175;42.606;23.388;2022-08-19T08:22:59;93677.09;;;29.96;45.34
10261;BME280;5175;42.606;23.388;2022-08-19T08:25:44;93678.34;;;29.74;45.63
10261;BME280;5175;42.606;23.388;2022-08-19T08:28:11;93671.59;;;29.93;44.70
10261;BME280;5175;42.606;23.388;2022-08-19T08:30:38;93678.91;;;30.17;44.78
10261;BME280;5175;42.606;23.388;2022-08-19T08:33:07;93686.66;;;30.36;44.26
10261;BME280;5175;42.606;23.388;2022-08-19T08:35:34;93677.84;;;30.55;43.47
10261;BME280;5175;42.606;23.388;2022-08-19T08:38:01;93679.63;;;30.76;44.47
10261;BME280;5175;42.606;23.388;2022-08-19T08:40:39;93685.84;;;30.83;41.55
10261;BME280;5175;42.606;23.388;2022-08-19T08:43:18;93678.66;;;30.96;41.96
10261;BME280;5175;42.606;23.388;2022-08-19T08:45:52;93684.66;;;30.84;41.30
10261;BME280;5175;42.606;23.388;2022-08-19T08:48:24;93680.19;;;31.01;41.06
10261;BME280;5175;42.606;23.388;2022-08-19T08:50:57;93668.28;;;31.08;40.64
10261;BME280;5175;42.606;23.388;2022-08-19T08:53:25;93670.75;;;31.02;40.99
10261;BME280;5175;42.606;23.388;2022-08-19T08:55:53;93663.13;;;31.13;40.41
10261;BME280;5175;42.606;23.388;2022-08-19T08:58:32;93670.47;;;31.23;39.14
10261;BME280;5175;42.606;23.388;2022-08-19T09:01:09;93663.81;;;31.21;38.05
10261;BME280;5175;42.606;23.388;2022-08-19T09:03:37;93675.50;;;31.32;36.46
10261;BME280;5175;42.606;23.388;2022-08-19T09:06:12;93671.41;;;31.43;37.67
10261;BME280;5175;42.606;23.388;2022-08-19T09:08:47;93666.69;;;31.47;37.88
10261;BME280;5175;42.606;23.388;2022-08-19T09:11:21;93670.19;;;31.82;37.95
10261;BME280;5175;42.606;23.388;2022-08-19T09:14:03;93666.34;;;32.02;38.89
10261;BME280;5175;42.606;23.388;2022-08-19T09:16:35;93661.81;;;32.15;37.59
10261;BME280;5175;42.606;23.388;2022-08-19T09:19:07;93659.31;;;32.25;37.06
10261;BME280;5175;42.606;23.388;2022-08-19T09:21:34;93658.81;;;32.06;35.64
10261;BME280;5175;42.606;23.388;2022-08-19T09:24:02;93646.84;;;32.13;36.99
10261;BME280;5175;42.606;23.388;2022-08-19T09:26:30;93656.16;;;31.99;35.14
10261;BME280;5175;42.606;23.388;2022-08-19T09:28:59;93659.47;;;32.14;36.53
10261;BME280;5175;42.606;23.388;2022-08-19T09:31:28;93652.09;;;32.31;36.38
10261;BME280;5175;42.606;23.388;2022-08-19T09:33:56;93649.59;;;32.40;36.66
10261;BME280;5175;42.606;23.388;2022-08-19T09:36:24;93658.38;;;32.35;34.55
10261;BME280;5175;42.606;23.388;2022-08-19T09:38:55;93641.88;;;32.54;34.97
10261;BME280;5175;42.606;23.388;2022-08-19T09:41:23;93648.53;;;32.57;34.28
10261;BME280;5175;42.606;23.388;2022-08-19T09:43:53;93652.97;;;32.51;33.33
10261;BME280;5175;42.606;23.388;2022-08-19T09:46:24;93640.34;;;32.50;34.69
10261;BME280;5175;42.606;23.388;2022-08-19T09:48:51;93657.91;;;32.63;33.65
10261;BME280;5175;42.606;23.388;2022-08-19T09:51:20;93647.16;;;32.68;34.94
10261;BME280;5175;42.606;23.388;2022-08-19T09:53:48;93649.44;;;32.73;32.43
10261;BME280;5175;42.606;23.388;2022-08-19T09:56:18;93647.44;;;32.97;32.18
10261;BME280;5175;42.606;23.388;2022-08-19T09:58:45;93638.84;;;32.92;31.68
10261;BME280;5175;42.606;23.388;2022-08-19T10:01:16;93654.13;;;32.76;31.11
10261;BME280;5175;42.606;23.388;2022-08-19T10:03:47;93650.88;;;33.05;31.91
10261;BME280;5175;42.606;23.388;2022-08-19T10:06:14;93641.53;;;32.95;31.29
10261;BME280;5175;42.606;23.388;2022-08-19T10:08:41;93641.94;;;33.17;32.15
10261;BME280;5175;42.606;23.388;2022-08-19T10:11:08;93636.41;;;33.36;31.53
10261;BME280;5175;42.606;23.388;2022-08-19T10:13:35;93626.25;;;33.50;31.09
10261;BME280;5175;42.606;23.388;2022-08-19T10:16:05;93627.38;;;33.52;32.55
10261;BME280;5175;42.606;23.388;2022-08-19T10:18:33;93634.22;;;33.67;30.63
10261;BME280;5175;42.606;23.388;2022-08-19T10:21:07;93629.41;;;33.71;31.44
10261;BME280;5175;42.606;23.388;2022-08-19T10:23:35;93634.66;;;33.66;30.03
10261;BME280;5175;42.606;23.388;2022-08-19T10:26:03;93631.38;;;33.71;30.36
10261;BME280;5175;42.606;23.388;2022-08-19T10:28:31;93625.59;;;33.81;30.97
10261;BME280;5175;42.606;23.388;2022-08-19T10:31:02;93636.69;;;33.81;30.75
10261;BME280;5175;42.606;23.388;2022-08-19T10:33:29;93629.16;;;33.82;31.55
10261;BME280;5175;42.606;23.388;2022-08-19T10:35:59;93623.00;;;33.90;31.07
10261;BME280;5175;42.606;23.388;2022-08-19T10:38:27;93632.56;;;33.89;30.89
10261;BME280;5175;42.606;23.388;2022-08-19T10:40:55;93616.69;;;33.90;32.13
10261;BME280;5175;42.606;23.388;2022-08-19T10:43:22;93625.16;;;33.83;28.82
10261;BME280;5175;42.606;23.388;2022-08-19T10:45:52;93624.06;;;33.96;30.41
10261;BME280;5175;42.606;23.388;2022-08-19T10:48:20;93617.81;;;33.76;31.21
10261;BME280;5175;42.606;23.388;2022-08-19T10:50:47;93626.97;;;33.73;30.62
10261;BME280;5175;42.606;23.388;2022-08-19T10:53:32;93612.34;;;33.53;31.23
10261;BME280;5175;42.606;23.388;2022-08-19T10:55:59;93614.31;;;33.56;30.79
10261;BME280;5175;42.606;23.388;2022-08-19T10:58:43;93611.06;;;33.77;31.06
10261;BME280;5175;42.606;23.388;2022-08-19T11:01:10;93611.28;;;34.03;31.51
10261;BME280;5175;42.606;23.388;2022-08-19T11:03:36;93599.16;;;33.96;30.47
10261;BME280;5175;42.606;23.388;2022-08-19T11:06:05;93613.56;;;34.08;29.46
10261;BME280;5175;42.606;23.388;2022-08-19T11:08:34;93605.09;;;34.15;29.90
10261;BME280;5175;42.606;23.388;2022-08-19T11:11:03;93613.22;;;34.22;31.33
10261;BME280;5175;42.606;23.388;2022-08-19T11:13:31;93613.25;;;33.86;30.55
10261;BME280;5175;42.606;23.388;2022-08-19T11:16:01;93609.16;;;33.55;30.95
10261;BME280;5175;42.606;23.388;2022-08-19T11:18:28;93606.97;;;33.66;32.55
10261;BME280;5175;42.606;23.388;2022-08-19T11:21:05;93604.78;;;33.57;31.70
10261;BME280;5175;42.606;23.388;2022-08-19T11:23:33;93610.63;;;33.79;31.14
10261;BME280;5175;42.606;23.388;2022-08-19T11:26:00;93606.47;;;34.07;30.80
10261;BME280;5175;42.606;23.388;2022-08-19T11:28:27;93613.47;;;34.27;30.36
10261;BME280;5175;42.606;23.388;2022-08-19T11:30:54;93607.41;;;34.65;29.21
10261;BME280;5175;42.606;23.388;2022-08-19T11:33:21;93598.78;;;34.91;28.87
10261;BME280;5175;42.606;23.388;2022-08-19T11:35:48;93607.19;;;34.88;28.64
10261;BME280;5175;42.606;23.388;2022-08-19T11:38:15;93600.47;;;34.73;27.92
10261;BME280;5175;42.606;23.388;2022-08-19T11:40:45;93594.38;;;34.94;29.85
10261;BME280;5175;42.606;23.388;2022-08-19T11:43:11;93587.69;;;34.91;31.43
10261;BME280;5175;42.606;23.388;2022-08-19T11:45:38;93589.47;;;35.14;32.02
10261;BME280;5175;42.606;23.388;2022-08-19T11:48:05;93595.88;;;35.11;29.20
10261;BME280;5175;42.606;23.388;2022-08-19T11:50:31;93577.72;;;34.94;30.29
10261;BME280;5175;42.606;23.388;2022-08-19T11:52:58;93583.69;;;35.08;29.97
10261;BME280;5175;42.606;23.388;2022-08-19T11:55:25;93585.16;;;35.13;29.31
10261;BME280;5175;42.606;23.388;2022-08-19T11:57:53;93580.22;;;35.33;28.95
10261;BME280;5175;42.606;23.388;2022-08-19T12:00:20;93580.31;;;35.30;29.21
10261;BME280;5175;42.606;23.388;2022-08-19T12:02:47;93577.00;;;35.06;28.07
10261;BME280;5175;42.606;23.388;2022-08-19T12:05:13;93554.28;;;35.11;29.96
10261;BME280;5175;42.606;23.388;2022-08-19T12:07:40;93572.84;;;35.27;27.90
10261;BME280;5175;42.606;23.388;2022-08-19T12:10:08;93569.28;;;35.26;28.88
10261;BME280;5175;42.606;23.388;2022-08-19T12:12:35;93563.41;;;35.24;28.94
10261;BME280;5175;42.606;23.388;2022-08-19T12:15:10;93570.50;;;35.12;28.74
10261;BME280;5175;42.606;23.388;2022-08-19T12:17:37;93563.09;;;35.22;28.87
10261;BME280;5175;42.606;23.388;2022-08-19T12:20:06;93562.22;;;35.38;29.32
10261;BME280;5175;42.606;23.388;2022-08-19T12:22:34;93560.81;;;35.04;29.21
10261;BME280;5175;42.606;23.388;2022-08-19T12:25:01;93558.94;;;34.85;29.20
10261;BME280;5175;42.606;23.388;2022-08-19T12:27:28;93540.81;;;34.97;29.78
10261;BME280;5175;42.606;23.388;2022-08-19T12:29:54;93543.72;;;35.06;29.36
10261;BME280;5175;42.606;23.388;2022-08-19T12:32:23;93543.22;;;35.23;28.56
10261;BME280;5175;42.606;23.388;2022-08-19T12:34:50;93540.34;;;35.27;28.39
10261;BME280;5175;42.606;23.388;2022-08-19T12:37:16;93542.25;;;35.30;29.75
10261;BME280;5175;42.606;23.388;2022-08-19T12:39:43;93535.28;;;35.38;28.96
10261;BME280;5175;42.606;23.388;2022-08-19T12:42:11;93542.47;;;35.36;28.54
10261;BME280;5175;42.606;23.388;2022-08-19T12:44:39;93534.94;;;35.36;30.25
10261;BME280;5175;42.606;23.388;2022-08-19T12:47:08;93525.31;;;35.78;30.05
10261;BME280;5175;42.606;23.388;2022-08-19T12:49:37;93530.09;;;35.91;30.02
10261;BME280;5175;42.606;23.388;2022-08-19T12:52:05;93525.97;;;35.70;28.53
10261;BME280;5175;42.606;23.388;2022-08-19T12:54:33;93525.41;;;35.75;28.96
10261;BME280;5175;42.606;23.388;2022-08-19T12:57:04;93533.63;;;35.91;28.15
10261;BME280;5175;42.606;23.388;2022-08-19T12:59:30;93533.97;;;36.06;29.76
10261;BME280;5175;42.606;23.388;2022-08-19T13:01:57;93528.56;;;36.02;29.18
10261;BME280;5175;42.606;23.388;2022-08-19T13:04:24;93526.44;;;35.81;29.03
10261;BME280;5175;42.606;23.388;2022-08-19T13:06:52;93528.19;;;35.62;28.41